Parc Calderonas, Puerto Rico
Current Conditions -  °F | °C
As of 7:53 AM on Saturday 25 Oct 2014 (Local Time) from TJNR Reporting Station
Clear Clear  
Wind Chill: 85°   Ceiling: Unl
Heat Index: 94°   Visibility: 10mi
Dew Point: 76°   Wind: 9mph
Humidity: 74%   Direction: 120°ESE
Pressure: 29.96"   Gusts: NA
Location:  18.2667°N, 65.6476°W
Report Text: TJNR 251153Z AUTO 12008KT 10SM CLR 29/24 A2996 RMK AO2 SLP145 T02940244 10294 20244 53018 $
Loading
Personal Weather Stations






























Interactive Weather Map
Tropical Storm Tracking
New forecast layout! Learn more

10-Day Weather Forecast

Advertisements
Track Severe Weather on mobile